Time;durP1;ratioP1;P1;durP2;ratioP2;P2;SDS_P1;SDS_P2;PMS_P1;PMS_P2;Temp;Humidity;BMP_temperature;BMP_pressure;BME280_temperature;BME280_humidity;BME280_pressure;Samples;Min_cycle;Max_cycle;Signal;HPM_P1;HPM_P2
2021/03/21 00:00:53;;;;;;;12.60;6.72;;;;;;;;;;5053226;28;20048;-63
2021/03/21 00:03:38;;;;;;;10.63;7.25;;;;;;;;;;5051484;28;20053;-63
2021/03/21 00:06:23;;;;;;;12.15;7.30;;;;;;;;;;5068066;28;20063;-64
2021/03/21 00:09:09;;;;;;;10.18;7.30;;;;;;;;;;5071807;28;20048;-64
2021/03/21 00:11:54;;;;;;;10.30;7.07;;;;;;;;;;5072716;28;20041;-63
2021/03/21 00:14:39;;;;;;;9.82;6.40;;;;;;;;;;5059443;28;20088;-63
2021/03/21 00:17:25;;;;;;;12.20;8.80;;;;;;;;;;5071399;28;20037;-63
2021/03/21 00:20:10;;;;;;;15.10;9.35;;;;;;;;;;5072421;28;20052;-63
2021/03/21 00:22:55;;;;;;;14.90;9.13;;;;;;;;;;5072556;28;20044;-63
2021/03/21 00:25:41;;;;;;;12.52;8.73;;;;;;;;;;5048447;28;20037;-63
2021/03/21 00:28:28;;;;;;;12.55;9.55;;;;;;;;;;5032248;28;20124;-63
2021/03/21 00:31:15;;;;;;;15.25;8.80;;;;;;;;;;5032712;28;20053;-63
2021/03/21 00:34:00;;;;;;;13.38;8.30;;;;;;;;;;5031493;28;20049;-63
2021/03/21 00:36:45;;;;;;;14.27;8.15;;;;;;;;;;5044856;28;20415;-63
2021/03/21 00:39:31;;;;;;;12.90;8.40;;;;;;;;;;5052284;28;20045;-63
2021/03/21 00:42:16;;;;;;;10.68;7.60;;;;;;;;;;5052228;28;20045;-63
2021/03/21 00:45:01;;;;;;;14.75;7.93;;;;;;;;;;5052039;28;20041;-63
2021/03/21 00:47:47;;;;;;;14.93;7.90;;;;;;;;;;5033556;28;20491;-63
2021/03/21 00:50:33;;;;;;;13.80;8.13;;;;;;;;;;5032185;28;20524;-63
2021/03/21 00:53:19;;;;;;;12.70;7.65;;;;;;;;;;5031105;28;20033;-63
2021/03/21 00:56:04;;;;;;;13.20;7.82;;;;;;;;;;5031866;28;20079;-63
2021/03/21 00:58:50;;;;;;;14.52;8.10;;;;;;;;;;5052026;28;20041;-63
2021/03/21 01:01:35;;;;;;;15.65;8.70;;;;;;;;;;5063938;28;20136;-63
2021/03/21 01:04:20;;;;;;;13.32;8.32;;;;;;;;;;5071803;28;20083;-63
2021/03/21 01:07:06;;;;;;;11.80;7.72;;;;;;;;;;5063731;28;20048;-63
2021/03/21 01:09:51;;;;;;;14.98;7.97;;;;;;;;;;5051855;28;20045;-63
2021/03/21 01:12:36;;;;;;;16.73;9.52;;;;;;;;;;5051840;28;20045;-63
2021/03/21 01:15:22;;;;;;;13.02;8.38;;;;;;;;;;5051610;28;20131;-63
2021/03/21 01:18:07;;;;;;;14.27;8.05;;;;;;;;;;5038912;28;20042;-63
2021/03/21 01:20:53;;;;;;;15.02;7.53;;;;;;;;;;5035742;28;20045;-63
2021/03/21 01:23:39;;;;;;;11.32;7.10;;;;;;;;;;5036003;28;20049;-63
2021/03/21 01:26:25;;;;;;;12.48;7.65;;;;;;;;;;5034741;28;20129;-63
2021/03/21 01:29:10;;;;;;;15.05;7.70;;;;;;;;;;5054053;28;20045;-63
2021/03/21 01:31:56;;;;;;;12.77;7.40;;;;;;;;;;5055803;28;20045;-63
2021/03/21 01:34:41;;;;;;;12.95;7.30;;;;;;;;;;5055459;28;20423;-63
2021/03/21 01:37:27;;;;;;;15.77;8.00;;;;;;;;;;5054428;28;20049;-64
2021/03/21 01:40:13;;;;;;;14.45;7.55;;;;;;;;;;5035628;28;20045;-64
2021/03/21 01:42:58;;;;;;;13.82;8.32;;;;;;;;;;5035541;28;20492;-63
2021/03/21 01:45:44;;;;;;;16.08;8.45;;;;;;;;;;5035590;28;20049;-64
2021/03/21 01:48:34;;;;;;;19.48;7.72;;;;;;;;;;5055416;28;20041;-64
2021/03/21 01:51:22;;;;;;;17.45;8.95;;;;;;;;;;5054414;28;20091;-64
2021/03/21 01:54:08;;;;;;;23.52;9.20;;;;;;;;;;5055327;28;20037;-63
2021/03/21 01:56:53;;;;;;;19.65;10.35;;;;;;;;;;5050674;28;20032;-63
2021/03/21 01:59:39;;;;;;;17.23;9.57;;;;;;;;;;5054283;28;20068;-63
2021/03/21 02:02:24;;;;;;;21.05;10.30;;;;;;;;;;5064691;28;20049;-64
2021/03/21 02:05:09;;;;;;;17.30;8.80;;;;;;;;;;5055072;28;20128;-63
2021/03/21 02:08:05;;;;;;;17.13;8.75;;;;;;;;;;5054590;28;20041;-63
2021/03/21 02:10:57;;;;;;;20.73;10.13;;;;;;;;;;5054057;28;20116;-64
2021/03/21 02:13:48;;;;;;;14.13;7.20;;;;;;;;;;5054219;28;20052;-64
2021/03/21 02:16:53;;;;;;;16.08;7.80;;;;;;;;;;5054824;28;20056;-64
2021/03/21 02:19:57;;;;;;;17.77;9.55;;;;;;;;;;5034870;28;20120;-63
2021/03/21 02:22:53;;;;;;;15.55;7.45;;;;;;;;;;5034847;28;20427;-63
2021/03/21 02:25:45;;;;;;;16.02;7.53;;;;;;;;;;5033662;28;20037;-64
2021/03/21 02:28:46;;;;;;;13.43;7.30;;;;;;;;;;5045430;28;20068;-63
2021/03/21 02:31:33;;;;;;;13.85;7.60;;;;;;;;;;5053539;28;20044;-63
2021/03/21 02:34:27;;;;;;;17.35;8.00;;;;;;;;;;5053446;28;20049;-63
2021/03/21 02:37:14;;;;;;;18.20;7.78;;;;;;;;;;5071646;28;20526;-63
2021/03/21 02:40:18;;;;;;;14.65;7.82;;;;;;;;;;5033754;28;20049;-63
2021/03/21 02:43:04;;;;;;;16.45;8.23;;;;;;;;;;5033395;28;20084;-63
2021/03/21 02:45:50;;;;;;;11.73;6.25;;;;;;;;;;5033271;28;20415;-64
2021/03/21 02:48:37;;;;;;;14.52;7.35;;;;;;;;;;5039913;28;20119;-63
2021/03/21 02:51:28;;;;;;;14.98;6.50;;;;;;;;;;5053241;28;20040;-64
2021/03/21 02:54:14;;;;;;;17.45;6.43;;;;;;;;;;5053163;28;20041;-63
2021/03/21 02:57:26;;;;;;;13.88;6.35;;;;;;;;;;5053165;28;20513;-63
2021/03/21 03:00:11;;;;;;;13.55;5.95;;;;;;;;;;5053507;28;20483;-63
2021/03/21 03:02:58;;;;;;;17.50;7.10;;;;;;;;;;5054397;28;20056;-63
2021/03/21 03:05:44;;;;;;;13.98;5.78;;;;;;;;;;5052731;28;20041;-63
2021/03/21 03:08:37;;;;;;;14.23;5.25;;;;;;;;;;5052656;28;20053;-63
2021/03/21 03:11:52;;;;;;;17.70;6.22;;;;;;;;;;5033189;28;20136;-63
2021/03/21 03:14:38;;;;;;;17.88;5.93;;;;;;;;;;5030236;28;20041;-63
2021/03/21 03:17:32;;;;;;;11.77;5.50;;;;;;;;;;5071984;28;20049;-63
2021/03/21 03:20:22;;;;;;;15.40;5.47;;;;;;;;;;5059585;28;20080;-63
2021/03/21 03:23:10;;;;;;;12.95;5.00;;;;;;;;;;5052627;28;20510;-63
2021/03/21 03:26:02;;;;;;;13.90;5.50;;;;;;;;;;5053426;28;20142;-63
2021/03/21 03:28:50;;;;;;;20.50;5.97;;;;;;;;;;5052670;28;20080;-63
2021/03/21 03:31:37;;;;;;;17.17;5.93;;;;;;;;;;5051146;28;20394;-63
2021/03/21 03:34:24;;;;;;;13.75;5.38;;;;;;;;;;5051771;28;20045;-63
2021/03/21 03:37:09;;;;;;;11.38;4.57;;;;;;;;;;5051367;28;20049;-63
2021/03/21 03:39:54;;;;;;;17.45;5.32;;;;;;;;;;5049898;28;20488;-63
2021/03/21 03:42:58;;;;;;;15.48;4.93;;;;;;;;;;5033364;28;20046;-63
2021/03/21 03:45:46;;;;;;;13.68;4.72;;;;;;;;;;5033143;28;20124;-63
2021/03/21 03:48:45;;;;;;;16.88;4.93;;;;;;;;;;5033207;28;20057;-63
2021/03/21 03:51:32;;;;;;;13.00;4.38;;;;;;;;;;5046585;28;20041;-63
2021/03/21 03:54:25;;;;;;;11.23;3.97;;;;;;;;;;5052027;28;20053;-63
2021/03/21 03:57:14;;;;;;;15.10;4.28;;;;;;;;;;5052005;28;20045;-63
2021/03/21 04:00:19;;;;;;;11.15;3.70;;;;;;;;;;5053160;28;20123;-63
2021/03/21 04:03:23;;;;;;;11.80;3.35;;;;;;;;;;5031896;28;20419;-63
2021/03/21 04:06:24;;;;;;;12.55;4.43;;;;;;;;;;5032643;28;20488;-63
2021/03/21 04:09:15;;;;;;;13.23;3.17;;;;;;;;;;5032093;28;20439;-63
2021/03/21 04:12:03;;;;;;;10.50;2.53;;;;;;;;;;5044756;28;20045;-63
2021/03/21 04:14:54;;;;;;;9.55;3.15;;;;;;;;;;5051514;28;20041;-63
2021/03/21 04:17:41;;;;;;;13.45;3.15;;;;;;;;;;5051899;28;20045;-63
2021/03/21 04:20:27;;;;;;;10.68;2.58;;;;;;;;;;5051598;28;20045;-63
2021/03/21 04:23:13;;;;;;;17.30;2.75;;;;;;;;;;5032547;28;20446;-63
2021/03/21 04:26:03;;;;;;;12.85;2.50;;;;;;;;;;5032359;28;20041;-63
2021/03/21 04:28:50;;;;;;;16.20;2.78;;;;;;;;;;5031648;28;20069;-63
2021/03/21 04:31:36;;;;;;;17.20;3.17;;;;;;;;;;5034037;28;20037;-63
2021/03/21 04:34:21;;;;;;;11.68;2.30;;;;;;;;;;5051978;28;20127;-63
2021/03/21 04:37:06;;;;;;;16.02;2.28;;;;;;;;;;5052472;28;20049;-63
2021/03/21 04:39:52;;;;;;;18.20;2.63;;;;;;;;;;5051339;28;20124;-63
2021/03/21 04:42:45;;;;;;;13.68;2.72;;;;;;;;;;5042545;28;20049;-63
2021/03/21 04:45:31;;;;;;;13.93;2.57;;;;;;;;;;5031278;28;20415;-63
2021/03/21 04:48:18;;;;;;;12.10;2.40;;;;;;;;;;5032253;28;20037;-63
2021/03/21 04:51:08;;;;;;;14.80;2.33;;;;;;;;;;5031227;28;20061;-63
2021/03/21 04:53:57;;;;;;;12.18;2.17;;;;;;;;;;5046403;28;20052;-63
2021/03/21 04:56:47;;;;;;;8.32;3.08;;;;;;;;;;5050982;28;20123;-63
2021/03/21 04:59:33;;;;;;;11.25;2.33;;;;;;;;;;5051188;28;20060;-63
2021/03/21 05:02:20;;;;;;;10.02;1.65;;;;;;;;;;5051788;28;20072;-63
2021/03/21 05:05:07;;;;;;;11.20;1.85;;;;;;;;;;5031144;28;20041;-63
2021/03/21 05:08:03;;;;;;;13.45;2.05;;;;;;;;;;5031942;28;20438;-63
2021/03/21 05:10:50;;;;;;;20.17;3.45;;;;;;;;;;5031023;28;20068;-63
2021/03/21 05:13:41;;;;;;;15.98;2.10;;;;;;;;;;5038417;28;20044;-63
2021/03/21 05:16:38;;;;;;;13.15;2.95;;;;;;;;;;5050487;28;20120;-63
2021/03/21 05:19:28;;;;;;;11.07;1.98;;;;;;;;;;5050832;28;20052;-63
2021/03/21 05:22:15;;;;;;;10.80;2.55;;;;;;;;;;5051626;28;20041;-63
2021/03/21 05:25:02;;;;;;;15.27;2.75;;;;;;;;;;5034067;28;20404;-63
2021/03/21 05:27:49;;;;;;;11.93;2.45;;;;;;;;;;5030732;28;20507;-63
2021/03/21 05:30:35;;;;;;;12.15;2.35;;;;;;;;;;5030767;28;20048;-63
2021/03/21 05:33:20;;;;;;;17.58;3.58;;;;;;;;;;5031812;28;20125;-63
2021/03/21 05:36:10;;;;;;;13.60;2.35;;;;;;;;;;5031627;28;20057;-63
2021/03/21 05:38:57;;;;;;;9.38;2.03;;;;;;;;;;5031671;28;20037;-63
2021/03/21 05:41:48;;;;;;;14.05;2.30;;;;;;;;;;5031767;28;20125;-63
2021/03/21 05:44:52;;;;;;;15.68;2.20;;;;;;;;;;5058699;28;20593;-63
2021/03/21 05:47:44;;;;;;;16.42;3.78;;;;;;;;;;5031714;28;20049;-63
2021/03/21 05:50:32;;;;;;;12.60;3.30;;;;;;;;;;5031731;28;20042;-63
2021/03/21 05:53:32;;;;;;;11.48;2.70;;;;;;;;;;5030577;28;20050;-63
2021/03/21 05:56:36;;;;;;;14.73;1.88;;;;;;;;;;5049378;28;20057;-63
2021/03/21 05:59:31;;;;;;;12.27;3.72;;;;;;;;;;5051423;28;20075;-63
2021/03/21 06:02:35;;;;;;;15.27;2.92;;;;;;;;;;5051078;28;20526;-63
2021/03/21 06:05:23;;;;;;;19.40;3.25;;;;;;;;;;5044466;28;20124;-63
2021/03/21 06:08:14;;;;;;;21.13;2.92;;;;;;;;;;5035126;28;20081;-63
2021/03/21 06:11:14;;;;;;;16.83;3.33;;;;;;;;;;5035244;28;20049;-63
2021/03/21 06:14:01;;;;;;;19.08;3.58;;;;;;;;;;5035091;28;20061;-63
2021/03/21 06:16:52;;;;;;;21.08;3.10;;;;;;;;;;5050286;28;20124;-63
2021/03/21 06:19:40;;;;;;;19.98;4.30;;;;;;;;;;5053817;28;20065;-63
2021/03/21 06:22:26;;;;;;;16.80;3.97;;;;;;;;;;5054785;28;20044;-63
2021/03/21 06:25:17;;;;;;;14.52;3.28;;;;;;;;;;5053048;28;20041;-63
2021/03/21 06:28:12;;;;;;;13.25;2.67;;;;;;;;;;5033847;28;20053;-63
2021/03/21 06:31:00;;;;;;;16.75;3.22;;;;;;;;;;5033857;28;20049;-63
2021/03/21 06:34:06;;;;;;;16.55;3.92;;;;;;;;;;5034776;28;20046;-63
2021/03/21 06:37:11;;;;;;;27.42;5.63;;;;;;;;;;5045828;28;20045;-63
2021/03/21 06:40:13;;;;;;;22.20;4.65;;;;;;;;;;5054545;28;20045;-63
2021/03/21 06:43:15;;;;;;;23.95;4.18;;;;;;;;;;5053609;28;20061;-63
2021/03/21 06:46:01;;;;;;;26.65;5.30;;;;;;;;;;5052616;28;20070;-63
2021/03/21 06:48:46;;;;;;;22.23;3.72;;;;;;;;;;5034565;28;20041;-63
2021/03/21 06:51:52;;;;;;;12.75;3.15;;;;;;;;;;5034495;28;20053;-63
2021/03/21 06:54:43;;;;;;;14.10;4.00;;;;;;;;;;5033019;28;20049;-62
2021/03/21 06:57:48;;;;;;;19.52;4.30;;;;;;;;;;5044709;28;20049;-63
2021/03/21 07:00:43;;;;;;;34.78;5.95;;;;;;;;;;5053148;28;20523;-63
2021/03/21 07:03:48;;;;;;;32.45;5.20;;;;;;;;;;5053065;28;20136;-63
2021/03/21 07:06:48;;;;;;;27.33;5.68;;;;;;;;;;5052508;28;20584;-62
2021/03/21 07:09:50;;;;;;;18.58;6.07;;;;;;;;;;5034098;28;20519;-63
2021/03/21 07:12:41;;;;;;;26.63;5.50;;;;;;;;;;5033976;28;20042;-63
2021/03/21 07:15:40;;;;;;;22.95;6.50;;;;;;;;;;5032667;28;20037;-62
2021/03/21 07:18:31;;;;;;;23.00;5.38;;;;;;;;;;5044708;28;20521;-63
2021/03/21 07:21:25;;;;;;;20.75;4.15;;;;;;;;;;5052750;28;20492;-62
2021/03/21 07:24:11;;;;;;;32.05;5.68;;;;;;;;;;5051900;28;20414;-63
2021/03/21 07:27:02;;;;;;;27.52;7.28;;;;;;;;;;5053660;28;20446;-62
2021/03/21 07:29:49;;;;;;;23.48;4.65;;;;;;;;;;5033631;28;20512;-62
2021/03/21 07:32:39;;;;;;;24.85;5.53;;;;;;;;;;5033522;28;20496;-62
2021/03/21 07:35:24;;;;;;;26.63;4.57;;;;;;;;;;5032121;28;20073;-63
2021/03/21 07:38:21;;;;;;;31.58;6.45;;;;;;;;;;5038081;28;20081;-63
2021/03/21 07:41:40;;;;;;;31.73;6.18;;;;;;;;;;5052412;28;20491;-62
2021/03/21 07:44:29;;;;;;;27.38;6.60;;;;;;;;;;5043713;28;20057;-62
2021/03/21 07:47:18;;;;;;;29.77;5.63;;;;;;;;;;5053284;28;20049;-63
2021/03/21 07:50:07;;;;;;;27.45;6.40;;;;;;;;;;5034424;28;20053;-63
2021/03/21 07:52:58;;;;;;;19.67;4.13;;;;;;;;;;5033210;28;20499;-63
2021/03/21 07:55:46;;;;;;;34.17;7.40;;;;;;;;;;5032973;28;20042;-62
2021/03/21 07:58:51;;;;;;;25.20;6.07;;;;;;;;;;5033805;28;20073;-62
2021/03/21 08:01:36;;;;;;;31.60;6.18;;;;;;;;;;5050493;28;20049;-62
2021/03/21 08:04:23;;;;;;;23.65;5.25;;;;;;;;;;5054088;28;20041;-63
2021/03/21 08:07:15;;;;;;;26.00;6.05;;;;;;;;;;5059002;28;20045;-64
2021/03/21 08:10:01;;;;;;;22.02;6.05;;;;;;;;;;5044430;28;20041;-64
2021/03/21 08:12:50;;;;;;;19.92;5.00;;;;;;;;;;5038287;28;20053;-63
2021/03/21 08:15:37;;;;;;;28.15;5.55;;;;;;;;;;5036851;28;20053;-64
2021/03/21 08:18:24;;;;;;;26.30;6.40;;;;;;;;;;5036357;28;20045;-63
2021/03/21 08:21:13;;;;;;;28.33;5.63;;;;;;;;;;5041303;28;20508;-63
2021/03/21 08:24:00;;;;;;;25.02;6.65;;;;;;;;;;5039128;28;20053;-64
2021/03/21 08:26:45;;;;;;;27.13;5.75;;;;;;;;;;5049414;28;20045;-64
2021/03/21 08:29:51;;;;;;;24.65;5.43;;;;;;;;;;5060277;28;20045;-63
2021/03/21 08:32:36;;;;;;;26.20;6.28;;;;;;;;;;5057834;28;20388;-64
2021/03/21 08:35:22;;;;;;;28.08;6.13;;;;;;;;;;5057583;28;20045;-64
2021/03/21 08:38:18;;;;;;;27.38;5.53;;;;;;;;;;5044018;28;20049;-63
2021/03/21 08:41:03;;;;;;;28.92;5.43;;;;;;;;;;5040449;28;20045;-64
2021/03/21 08:43:49;;;;;;;22.30;4.22;;;;;;;;;;5041119;28;20049;-64
2021/03/21 08:46:35;;;;;;;25.17;6.28;;;;;;;;;;5041203;28;20046;-63
2021/03/21 08:49:21;;;;;;;25.48;5.63;;;;;;;;;;5060065;28;20047;-63
2021/03/21 08:52:06;;;;;;;29.60;6.15;;;;;;;;;;5066984;28;20040;-64
2021/03/21 08:54:51;;;;;;;24.55;6.18;;;;;;;;;;5055589;28;20061;-64
2021/03/21 08:57:37;;;;;;;27.67;6.13;;;;;;;;;;5046305;28;20041;-63
2021/03/21 09:00:29;;;;;;;22.98;5.65;;;;;;;;;;5049811;28;20037;-64
2021/03/21 09:03:18;;;;;;;27.30;7.47;;;;;;;;;;5057421;28;20044;-62
2021/03/21 09:06:03;;;;;;;25.92;5.18;;;;;;;;;;5044862;28;20120;-64
2021/03/21 09:08:49;;;;;;;19.50;5.68;;;;;;;;;;5045368;28;20136;-63
2021/03/21 09:11:35;;;;;;;30.00;6.28;;;;;;;;;;5049757;28;20080;-63
2021/03/21 09:14:21;;;;;;;26.50;5.90;;;;;;;;;;5071793;28;20052;-63
2021/03/21 09:17:08;;;;;;;30.58;7.10;;;;;;;;;;5071689;28;20056;-63
2021/03/21 09:19:59;;;;;;;33.78;6.80;;;;;;;;;;5032063;28;20049;-62
2021/03/21 09:22:48;;;;;;;30.98;6.15;;;;;;;;;;5031798;28;20050;-63
2021/03/21 09:25:33;;;;;;;27.00;5.95;;;;;;;;;;5031617;28;20050;-63
2021/03/21 09:28:19;;;;;;;18.77;4.43;;;;;;;;;;5037034;28;20041;-63
2021/03/21 09:31:09;;;;;;;20.52;4.25;;;;;;;;;;5037087;28;20038;-63
2021/03/21 09:34:06;;;;;;;24.50;5.57;;;;;;;;;;5030816;28;20132;-63
2021/03/21 09:36:53;;;;;;;21.80;6.00;;;;;;;;;;5030880;28;20050;-63
2021/03/21 09:39:40;;;;;;;22.88;4.55;;;;;;;;;;5030821;28;20081;-63
2021/03/21 09:42:25;;;;;;;27.75;5.82;;;;;;;;;;5034647;28;20072;-63
2021/03/21 09:45:11;;;;;;;27.08;5.45;;;;;;;;;;5035625;28;20049;-64
2021/03/21 09:47:59;;;;;;;21.17;4.57;;;;;;;;;;5062420;28;20049;-63
2021/03/21 09:50:45;;;;;;;20.73;5.72;;;;;;;;;;5055804;28;20423;-63
2021/03/21 09:53:42;;;;;;;32.15;7.18;;;;;;;;;;5045284;28;20045;-64
2021/03/21 09:56:42;;;;;;;28.98;6.30;;;;;;;;;;5044522;28;20088;-63
2021/03/21 09:59:30;;;;;;;22.25;5.10;;;;;;;;;;5053392;28;20052;-63
2021/03/21 10:02:22;;;;;;;20.73;5.03;;;;;;;;;;5072414;28;20048;-63
2021/03/21 10:05:11;;;;;;;28.52;6.65;;;;;;;;;;5033936;28;20419;-63
2021/03/21 10:08:09;;;;;;;21.10;4.57;;;;;;;;;;5035656;28;20063;-63
2021/03/21 10:10:54;;;;;;;26.05;5.43;;;;;;;;;;5057326;28;20132;-63
2021/03/21 10:13:41;;;;;;;28.75;5.50;;;;;;;;;;5067687;28;20049;-63
2021/03/21 10:16:26;;;;;;;30.65;6.75;;;;;;;;;;5070314;28;20140;-63
2021/03/21 10:19:12;;;;;;;21.63;5.20;;;;;;;;;;5061325;28;20052;-63
2021/03/21 10:21:57;;;;;;;30.35;5.90;;;;;;;;;;5053849;28;20080;-63
2021/03/21 10:24:42;;;;;;;18.58;4.97;;;;;;;;;;5054725;28;20140;-63
2021/03/21 10:27:30;;;;;;;31.38;6.15;;;;;;;;;;5054702;28;20487;-63
2021/03/21 10:30:25;;;;;;;26.17;7.60;;;;;;;;;;5043694;28;20485;-63
2021/03/21 10:33:19;;;;;;;36.40;7.22;;;;;;;;;;5063624;28;20111;-63
2021/03/21 10:36:04;;;;;;;21.48;5.05;;;;;;;;;;5040067;28;20065;-63
2021/03/21 10:38:50;;;;;;;28.85;6.07;;;;;;;;;;5060769;28;20045;-63
2021/03/21 10:41:54;;;;;;;30.55;6.93;;;;;;;;;;5053242;28;20045;-63
2021/03/21 10:44:41;;;;;;;22.33;4.53;;;;;;;;;;5061480;28;20128;-63
2021/03/21 10:47:27;;;;;;;32.38;7.22;;;;;;;;;;5054634;28;20052;-63
2021/03/21 10:50:19;;;;;;;23.08;5.00;;;;;;;;;;5056314;28;20411;-63
2021/03/21 10:53:43;;;;;;;21.08;6.00;;;;;;;;;;5062225;28;20053;-63
2021/03/21 10:56:30;;;;;;;21.67;6.20;;;;;;;;;;5043197;28;20045;-63
2021/03/21 10:59:22;;;;;;;18.30;3.65;;;;;;;;;;5051851;28;20049;-63
2021/03/21 11:02:20;;;;;;;36.33;6.65;;;;;;;;;;5054398;28;20041;-63
2021/03/21 11:05:06;;;;;;;19.23;5.60;;;;;;;;;;5052266;28;20415;-64
2021/03/21 11:08:10;;;;;;;30.55;7.00;;;;;;;;;;5054039;28;20037;-63
2021/03/21 11:10:56;;;;;;;21.42;4.47;;;;;;;;;;5056277;28;20053;-63
2021/03/21 11:13:41;;;;;;;31.27;6.00;;;;;;;;;;5050498;28;20053;-63
2021/03/21 11:16:26;;;;;;;17.73;6.03;;;;;;;;;;5032630;28;20049;-63
2021/03/21 11:19:13;;;;;;;29.27;6.18;;;;;;;;;;5039082;28;20065;-63
2021/03/21 11:21:58;;;;;;;24.92;4.68;;;;;;;;;;5040077;28;20093;-63
2021/03/21 11:24:43;;;;;;;23.77;5.35;;;;;;;;;;5037029;28;20220;-64
2021/03/21 11:27:32;;;;;;;23.13;5.60;;;;;;;;;;5041641;28;20049;-63
2021/03/21 11:30:20;;;;;;;24.63;5.03;;;;;;;;;;5051104;28;20041;-63
2021/03/21 11:33:19;;;;;;;25.25;4.15;;;;;;;;;;5059781;28;20064;-63
2021/03/21 11:36:08;;;;;;;27.73;6.15;;;;;;;;;;5052647;28;20049;-64
2021/03/21 11:38:53;;;;;;;20.35;5.35;;;;;;;;;;5053200;28;20045;-63
2021/03/21 11:41:39;;;;;;;19.17;4.82;;;;;;;;;;5059905;28;20132;-63
2021/03/21 11:44:25;;;;;;;22.55;5.90;;;;;;;;;;5065893;28;20036;-63
2021/03/21 11:47:12;;;;;;;23.92;5.93;;;;;;;;;;5063980;28;20041;-63
2021/03/21 11:49:58;;;;;;;19.35;4.30;;;;;;;;;;5057944;28;20702;-64
2021/03/21 11:52:44;;;;;;;22.67;4.32;;;;;;;;;;5053129;28;20363;-63
2021/03/21 11:55:33;;;;;;;12.63;3.60;;;;;;;;;;5063341;28;20052;-64
2021/03/21 11:58:23;;;;;;;33.38;5.40;;;;;;;;;;5071531;28;20036;-63
2021/03/21 12:01:18;;;;;;;16.50;4.90;;;;;;;;;;5060003;28;20049;-63
2021/03/21 12:04:04;;;;;;;21.98;5.13;;;;;;;;;;5044302;28;20036;-63
2021/03/21 12:06:50;;;;;;;23.83;4.15;;;;;;;;;;5048330;28;20033;-63
2021/03/21 12:09:36;;;;;;;11.32;3.58;;;;;;;;;;5062293;28;20048;-63
2021/03/21 12:12:35;;;;;;;16.42;4.05;;;;;;;;;;5055916;28;20059;-63
2021/03/21 12:15:23;;;;;;;25.25;5.65;;;;;;;;;;5043617;28;20132;-64
2021/03/21 12:18:18;;;;;;;23.48;5.15;;;;;;;;;;5058776;28;20514;-64
2021/03/21 12:21:15;;;;;;;24.98;5.22;;;;;;;;;;5052643;28;20044;-63
2021/03/21 12:24:05;;;;;;;20.40;6.07;;;;;;;;;;5051621;28;20041;-63
2021/03/21 12:26:52;;;;;;;10.95;4.10;;;;;;;;;;5042791;28;20131;-63
2021/03/21 12:29:39;;;;;;;25.20;5.50;;;;;;;;;;5060067;28;20116;-63
2021/03/21 12:32:28;;;;;;;21.65;3.72;;;;;;;;;;5047283;28;20041;-63
2021/03/21 12:35:13;;;;;;;26.02;6.22;;;;;;;;;;5062968;28;20587;-63
2021/03/21 12:38:01;;;;;;;24.60;6.40;;;;;;;;;;5061762;28;20088;-64
2021/03/21 12:40:46;;;;;;;21.08;4.97;;;;;;;;;;5059351;28;20052;-64
2021/03/21 12:43:32;;;;;;;23.50;5.65;;;;;;;;;;5070169;28;20049;-64
2021/03/21 12:46:17;;;;;;;24.23;5.53;;;;;;;;;;5054935;28;20049;-63
2021/03/21 12:49:04;;;;;;;19.92;4.82;;;;;;;;;;5064987;28;20123;-64
2021/03/21 12:51:50;;;;;;;21.05;5.45;;;;;;;;;;5058211;28;20045;-63
2021/03/21 12:54:35;;;;;;;25.80;5.88;;;;;;;;;;5068354;28;20041;-64
2021/03/21 12:57:20;;;;;;;21.35;4.88;;;;;;;;;;5060827;28;20049;-64
2021/03/21 13:00:06;;;;;;;20.50;4.80;;;;;;;;;;5050514;28;20057;-64
2021/03/21 13:02:52;;;;;;;21.58;5.60;;;;;;;;;;5054353;28;20040;-64
2021/03/21 13:05:39;;;;;;;18.77;4.05;;;;;;;;;;5042063;28;20037;-63
2021/03/21 13:08:24;;;;;;;27.65;5.43;;;;;;;;;;5062684;28;20044;-64
2021/03/21 13:11:09;;;;;;;17.40;4.30;;;;;;;;;;5044254;28;20040;-63
2021/03/21 13:13:55;;;;;;;21.02;5.60;;;;;;;;;;5032166;28;20053;-63
2021/03/21 13:16:40;;;;;;;22.77;5.25;;;;;;;;;;5031371;28;20045;-64
2021/03/21 13:19:25;;;;;;;28.52;5.57;;;;;;;;;;5034687;28;20111;-64
2021/03/21 13:22:11;;;;;;;15.63;4.75;;;;;;;;;;5050069;28;20037;-63
2021/03/21 13:24:56;;;;;;;23.13;5.60;;;;;;;;;;5048774;28;20057;-63
2021/03/21 13:27:41;;;;;;;25.20;6.93;;;;;;;;;;5051526;28;20045;-64
2021/03/21 13:30:31;;;;;;;22.83;4.72;;;;;;;;;;5035982;28;20069;-64
2021/03/21 13:33:20;;;;;;;14.57;4.50;;;;;;;;;;5032763;28;20042;-63
2021/03/21 13:36:09;;;;;;;19.92;5.10;;;;;;;;;;5044798;28;20048;-64
2021/03/21 13:38:54;;;;;;;22.23;5.30;;;;;;;;;;5051540;28;20041;-64
2021/03/21 13:41:39;;;;;;;23.98;4.43;;;;;;;;;;5046494;28;20562;-63
2021/03/21 13:44:25;;;;;;;18.67;3.72;;;;;;;;;;5048728;28;20057;-63
2021/03/21 13:47:10;;;;;;;27.65;4.82;;;;;;;;;;5051398;28;20049;-63
2021/03/21 13:49:59;;;;;;;31.73;5.72;;;;;;;;;;5044482;28;20045;-63
2021/03/21 13:52:44;;;;;;;23.67;4.78;;;;;;;;;;5031426;28;20053;-63
2021/03/21 13:55:31;;;;;;;33.38;6.05;;;;;;;;;;5047370;28;20388;-64
2021/03/21 13:58:16;;;;;;;22.98;4.43;;;;;;;;;;5051494;28;20052;-63
2021/03/21 14:01:02;;;;;;;16.02;3.97;;;;;;;;;;5037925;28;20049;-63
2021/03/21 14:03:47;;;;;;;23.40;4.60;;;;;;;;;;5034770;28;20048;-64
2021/03/21 14:06:33;;;;;;;23.23;4.93;;;;;;;;;;5031114;28;20050;-64
2021/03/21 14:09:18;;;;;;;26.23;5.88;;;;;;;;;;5032692;28;20050;-63
2021/03/21 14:12:04;;;;;;;21.92;5.18;;;;;;;;;;5061669;28;20505;-64
2021/03/21 14:14:49;;;;;;;16.33;3.22;;;;;;;;;;5050370;28;20045;-63
2021/03/21 14:17:34;;;;;;;19.88;4.70;;;;;;;;;;5030880;28;20042;-63
2021/03/21 14:20:20;;;;;;;24.10;4.43;;;;;;;;;;5031397;28;20053;-63
2021/03/21 14:25:19;;;;;;;23.90;5.03;;;;;;;;;;5129805;27;20894;-62
2021/03/21 14:28:05;;;;;;;32.65;5.03;;;;;;;;;;5117853;28;20040;-63
2021/03/21 14:30:50;;;;;;;28.15;5.95;;;;;;;;;;5109500;28;20032;-62
2021/03/21 14:33:35;;;;;;;20.25;4.32;;;;;;;;;;5109689;28;20052;-63
2021/03/21 14:36:21;;;;;;;31.00;6.43;;;;;;;;;;5099136;28;20122;-62
2021/03/21 14:39:06;;;;;;;18.17;4.30;;;;;;;;;;5090428;28;20556;-62
2021/03/21 14:41:52;;;;;;;21.25;5.03;;;;;;;;;;5089178;28;20044;-63
2021/03/21 14:44:37;;;;;;;30.90;5.10;;;;;;;;;;5096960;28;20032;-62
2021/03/21 14:47:22;;;;;;;26.17;5.47;;;;;;;;;;5108911;28;20069;-62
2021/03/21 14:50:08;;;;;;;20.10;5.43;;;;;;;;;;5109150;28;20455;-62
2021/03/21 14:52:54;;;;;;;28.23;4.78;;;;;;;;;;5109214;28;20039;-62
2021/03/21 14:55:44;;;;;;;22.45;5.30;;;;;;;;;;5108357;28;20048;-62
2021/03/21 14:58:29;;;;;;;24.25;5.00;;;;;;;;;;5107699;28;20052;-63
2021/03/21 15:01:14;;;;;;;21.50;4.47;;;;;;;;;;5108973;28;20501;-62
2021/03/21 15:04:00;;;;;;;22.23;5.40;;;;;;;;;;5109035;28;20048;-62
2021/03/21 15:06:45;;;;;;;23.42;5.45;;;;;;;;;;5108068;28;20070;-62
2021/03/21 15:09:30;;;;;;;25.48;5.53;;;;;;;;;;5108682;28;20048;-63
2021/03/21 15:12:16;;;;;;;22.38;4.10;;;;;;;;;;5108983;28;20048;-63
2021/03/21 15:15:03;;;;;;;28.63;6.03;;;;;;;;;;5108809;28;20047;-63
2021/03/21 15:17:48;;;;;;;26.65;3.60;;;;;;;;;;5107352;28;20460;-62
2021/03/21 15:20:34;;;;;;;39.78;7.50;;;;;;;;;;5108693;28;20051;-63
2021/03/21 15:23:23;;;;;;;21.60;6.15;;;;;;;;;;5108604;28;20078;-63
2021/03/21 15:26:11;;;;;;;17.33;3.20;;;;;;;;;;5107933;28;20043;-62
2021/03/21 15:28:57;;;;;;;25.02;4.38;;;;;;;;;;5108075;28;20032;-62
2021/03/21 15:31:42;;;;;;;19.95;4.40;;;;;;;;;;5108634;28;20402;-62
2021/03/21 15:34:27;;;;;;;29.48;6.72;;;;;;;;;;5107333;28;20494;-62
2021/03/21 15:37:13;;;;;;;29.92;4.70;;;;;;;;;;5095050;28;20127;-63
2021/03/21 15:39:58;;;;;;;16.92;4.47;;;;;;;;;;5094442;28;20044;-62
2021/03/21 15:42:43;;;;;;;29.85;5.40;;;;;;;;;;5095116;28;20052;-62
2021/03/21 15:45:29;;;;;;;19.90;4.28;;;;;;;;;;5094385;28;20114;-62
2021/03/21 15:48:15;;;;;;;26.30;5.50;;;;;;;;;;5093445;28;20048;-62
2021/03/21 15:51:00;;;;;;;21.60;4.00;;;;;;;;;;5093571;28;20045;-62
2021/03/21 15:53:45;;;;;;;29.45;5.20;;;;;;;;;;5076390;28;20048;-62
2021/03/21 15:56:30;;;;;;;29.85;4.45;;;;;;;;;;5094344;28;20040;-62
2021/03/21 15:59:16;;;;;;;25.45;4.25;;;;;;;;;;5094135;28;20123;-62
2021/03/21 16:02:01;;;;;;;20.88;4.30;;;;;;;;;;5094510;28;20047;-63
2021/03/21 16:04:47;;;;;;;24.00;5.15;;;;;;;;;;5093822;28;20040;-62
2021/03/21 16:07:32;;;;;;;28.42;4.40;;;;;;;;;;5094218;28;20040;-62
2021/03/21 16:10:18;;;;;;;20.13;5.13;;;;;;;;;;5107956;27;20044;-63
2021/03/21 16:13:07;;;;;;;27.38;5.43;;;;;;;;;;5093970;28;20044;-63
2021/03/21 16:15:53;;;;;;;16.27;2.72;;;;;;;;;;5093653;28;20059;-62
2021/03/21 16:18:38;;;;;;;20.15;4.13;;;;;;;;;;5073684;28;20124;-62
2021/03/21 16:21:23;;;;;;;28.45;5.93;;;;;;;;;;5088814;28;20051;-62
2021/03/21 16:24:09;;;;;;;18.65;3.97;;;;;;;;;;5075823;28;20422;-62
2021/03/21 16:26:54;;;;;;;19.70;5.13;;;;;;;;;;5093821;28;20048;-63
2021/03/21 16:29:40;;;;;;;22.33;5.10;;;;;;;;;;5093495;28;20449;-62
2021/03/21 16:32:25;;;;;;;28.45;6.78;;;;;;;;;;5093036;28;20044;-62
2021/03/21 16:35:11;;;;;;;22.35;4.25;;;;;;;;;;5093222;28;20048;-62
2021/03/21 16:37:58;;;;;;;21.05;4.05;;;;;;;;;;5093930;28;20072;-62
2021/03/21 16:40:44;;;;;;;32.17;6.22;;;;;;;;;;5093421;28;20048;-62